KBIX/BIX METAR and TAF weather

Enter ICAO airport designator
Station Type Date Time Source
KBIX METAR 2018/07/21 03:56 UTC NOAA

KBIX 210356Z 00000KT 10SM CLR 28/26 A2994 RMK AO2A SLP137 ALSTG/SLP ESTMD T02820260 $


Station Type Date Time Source
KBIX Decoded METAR 2018/07/21 03:56 UTC NOAA

Keesler Air Force Base / Biloxi, MS, United States (KBIX) 30-25N 088-55W
Jul 20, 2018 - 11:56 PM EDT / 2018.07.21 0356 UTC
Wind: Calm:0
Visibility: 10 mile(s):0
Sky conditions: clear
Temperature: 82.8 F (28.2 C)
Dew Point: 78.8 F (26.0 C)
Relative Humidity: 87%
Pressure (altimeter): 29.94 in. Hg (1013 hPa)
ob: KBIX 210356Z 00000KT 10SM CLR 28/26 A2994 RMK AO2A SLP137 ALSTG/SLP ESTMD T02820260
cycle: 4

Station Type Date Time Source
KBIX TAF 2018/07/21 02:31 UTC NOAA

TAF
AMD KBIX 210213Z 2102/2208 24006KT 9999 FEW030 QNH2988INS
BECMG 2115/2116 26010G15KT 8000 -SHRA SCT035 BKN100 QNH2983INS
TEMPO 2117/2123 VRB15G25KT 4800 -TSRA BKN035CB OVC100
BECMG 2123/2200 25006KT 9999 NSW FEW030 SCT100 QNH2984INS TX33/2121Z TN24/2112Z LAST NO
AMDS AFT 2104 NEXT 2310


Example: see airport list